Time;durP1;ratioP1;P1;durP2;ratioP2;P2;SDS_P1;SDS_P2;PMS_P1;PMS_P2;Temp;Humidity;BMP_temperature;BMP_pressure;BME280_temperature;BME280_humidity;BME280_pressure;Samples;Min_cycle;Max_cycle;Signal;HPM_P1;HPM_P2
2023/04/15 00:00:14;;;;;;;;;;;;;;;21.63;37.64;100885.03;5130616;27;20002;-73
2023/04/15 00:02:39;;;;;;;;;;;;;;;21.61;37.87;100887.91;5132518;27;20673;-73
2023/04/15 00:05:05;;;;;;;;;;;;;;;21.59;37.93;100881.84;5129596;27;19912;-74
2023/04/15 00:07:30;;;;;;;;;;;;;;;21.59;37.66;100883.72;5137952;27;20372;-73
2023/04/15 00:09:56;;;;;;;;;;;;;;;21.57;37.52;100883.91;5129806;27;19911;-73
2023/04/15 00:12:22;;;;;;;;;;;;;;;21.57;37.69;100883.06;5136149;27;19923;-73
2023/04/15 00:14:47;;;;;;;;;;;;;;;21.55;37.77;100890.53;5131538;27;19955;-73
2023/04/15 00:17:12;;;;;;;;;;;;;;;21.53;37.64;100890.69;5129674;27;19911;-74
2023/04/15 00:19:38;;;;;;;;;;;;;;;21.51;37.63;100895.47;5125330;28;20450;-73
2023/04/15 00:22:03;;;;;;;;;;;;;;;21.51;37.78;100891.94;5129891;27;19915;-73
2023/04/15 00:24:30;;;;;;;;;;;;;;;21.49;37.59;100893.97;5128495;27;19934;-73
2023/04/15 00:26:55;;;;;;;;;;;;;;;21.48;37.68;100895.84;5129654;28;19912;-73
2023/04/15 00:29:20;;;;;;;;;;;;;;;21.46;37.79;100896.03;5115384;27;19911;-73
2023/04/15 00:31:45;;;;;;;;;;;;;;;21.45;37.85;100894.38;5129569;28;19911;-73
2023/04/15 00:34:10;;;;;;;;;;;;;;;21.43;37.87;100888.28;5133483;28;19915;-74
2023/04/15 00:36:36;;;;;;;;;;;;;;;21.42;37.79;100892.03;5131933;28;19929;-73
2023/04/15 00:39:02;;;;;;;;;;;;;;;21.40;37.83;100894.06;5135717;28;19915;-73
2023/04/15 00:41:27;;;;;;;;;;;;;;;21.39;37.89;100895.09;5132932;28;19963;-73
2023/04/15 00:43:53;;;;;;;;;;;;;;;21.38;37.54;100889.88;5130475;27;19912;-73
2023/04/15 00:46:19;;;;;;;;;;;;;;;21.37;37.66;100899.84;5131888;28;19934;-73
2023/04/15 00:48:44;;;;;;;;;;;;;;;21.35;37.67;100904.59;5111224;28;19958;-74
2023/04/15 00:51:09;;;;;;;;;;;;;;;21.34;37.78;100905.63;5114618;28;19916;-73
2023/04/15 00:53:35;;;;;;;;;;;;;;;21.33;37.73;100908.53;5129889;28;19994;-73
2023/04/15 00:56:00;;;;;;;;;;;;;;;21.31;37.56;100899.72;5113142;28;19911;-73
2023/04/15 00:58:25;;;;;;;;;;;;;;;21.29;37.81;100897.22;5129438;28;19922;-73
2023/04/15 01:00:53;;;;;;;;;;;;;;;21.28;37.81;100897.38;5113754;28;19919;-73
2023/04/15 01:03:18;;;;;;;;;;;;;;;21.26;37.89;100899.44;5134397;27;20388;-72
2023/04/15 01:05:43;;;;;;;;;;;;;;;21.24;37.69;100896.94;5132482;27;19923;-74
2023/04/15 01:08:09;;;;;;;;;;;;;;;21.23;37.89;100898.75;5123148;27;19999;-73
2023/04/15 01:10:34;;;;;;;;;;;;;;;21.23;37.64;100897.94;5136430;27;19933;-74
2023/04/15 01:13:00;;;;;;;;;;;;;;;21.21;37.60;100902.69;5134743;27;20034;-73
2023/04/15 01:15:25;;;;;;;;;;;;;;;21.20;37.65;100906.44;5127760;27;19920;-72
2023/04/15 01:17:50;;;;;;;;;;;;;;;21.17;37.69;100904.91;5133210;27;20041;-74
2023/04/15 01:20:16;;;;;;;;;;;;;;;21.17;37.88;100914.91;5134728;27;19969;-75
2023/04/15 01:22:41;;;;;;;;;;;;;;;21.15;37.74;100906.97;5134346;27;19911;-74
2023/04/15 01:25:11;;;;;;;;;;;;;;;21.14;37.73;100907.16;5113118;28;19934;-73
2023/04/15 01:27:38;;;;;;;;;;;;;;;21.12;37.62;100909.22;5134587;27;19962;-73
2023/04/15 01:30:04;;;;;;;;;;;;;;;21.11;37.85;100910.19;5119134;27;19915;-71
2023/04/15 01:32:30;;;;;;;;;;;;;;;21.09;37.63;100909.56;5117153;27;19983;-73
2023/04/15 01:34:55;;;;;;;;;;;;;;;21.08;37.64;100902.47;5138215;27;19916;-73
2023/04/15 01:37:20;;;;;;;;;;;;;;;21.06;37.79;100904.50;5134251;27;19983;-73
2023/04/15 01:39:45;;;;;;;;;;;;;;;21.05;37.63;100906.38;5135512;27;19915;-73
2023/04/15 01:42:11;;;;;;;;;;;;;;;21.04;37.81;100909.28;5135750;27;19911;-73
2023/04/15 01:44:36;;;;;;;;;;;;;;;21.02;37.86;100908.59;5135358;27;19912;-73
2023/04/15 01:47:01;;;;;;;;;;;;;;;21.00;37.98;100905.25;5116005;27;19912;-73
2023/04/15 01:49:26;;;;;;;;;;;;;;;20.99;37.75;100906.28;5121188;27;19954;-72
2023/04/15 01:51:52;;;;;;;;;;;;;;;20.98;37.70;100910.81;5119286;28;20284;-73
2023/04/15 01:54:18;;;;;;;;;;;;;;;20.96;37.87;100916.44;5132104;27;19915;-74
2023/04/15 01:56:43;;;;;;;;;;;;;;;20.52;37.82;100848.75;5136817;27;20447;-73
2023/04/15 01:59:08;;;;;;;;;;;;;;;20.93;37.92;100916.78;5112350;28;19926;-73
2023/04/15 02:01:33;;;;;;;;;;;;;;;20.93;37.72;100918.66;5137760;27;19916;-73
2023/04/15 02:03:59;;;;;;;;;;;;;;;20.91;37.99;100926.94;5135840;27;19912;-70
2023/04/15 02:06:24;;;;;;;;;;;;;;;20.90;37.92;100921.72;5124717;27;19918;-73
2023/04/15 02:08:49;;;;;;;;;;;;;;;20.89;37.60;100922.72;5138021;27;20193;-74
2023/04/15 02:11:14;;;;;;;;;;;;;;;20.87;37.66;100931.03;5132893;27;19988;-71
2023/04/15 02:13:40;;;;;;;;;;;;;;;20.86;38.00;100923.13;5131193;27;19923;-73
2023/04/15 02:16:14;;;;;;;;;;;;;;;20.85;37.94;100933.06;5131126;27;20280;-71
2023/04/15 02:18:39;;;;;;;;;;;;;;;20.83;37.83;100928.88;5133818;27;19922;-72
2023/04/15 02:21:05;;;;;;;;;;;;;;;20.82;37.67;100933.44;5132805;27;19915;-73
2023/04/15 02:23:31;;;;;;;;;;;;;;;20.81;37.94;100931.75;5134929;27;20330;-73
2023/04/15 02:25:56;;;;;;;;;;;;;;;20.79;37.73;100931.09;5131824;27;19912;-74
2023/04/15 02:28:21;;;;;;;;;;;;;;;20.79;37.84;100938.38;5135336;27;19912;-74
2023/04/15 02:30:47;;;;;;;;;;;;;;;20.77;37.88;100935.81;5138568;27;19916;-74
2023/04/15 02:33:13;;;;;;;;;;;;;;;20.75;37.86;100943.28;5132435;27;19974;-74
2023/04/15 02:35:40;;;;;;;;;;;;;;;20.75;37.79;100943.28;5137094;27;19912;-73
2023/04/15 02:38:06;;;;;;;;;;;;;;;20.73;37.85;100948.03;5131247;27;19923;-73
2023/04/15 02:40:31;;;;;;;;;;;;;;;20.72;37.82;100943.63;5115986;27;19916;-73
2023/04/15 02:42:56;;;;;;;;;;;;;;;20.71;38.06;100950.91;5134021;27;20353;-73
2023/04/15 02:45:24;;;;;;;;;;;;;;;20.70;37.93;100951.94;5132422;27;19916;-73
2023/04/15 02:47:49;;;;;;;;;;;;;;;20.69;37.77;100954.81;5131641;27;20122;-74
2023/04/15 02:50:16;;;;;;;;;;;;;;;20.67;38.04;100954.16;5135701;27;19947;-73
2023/04/15 02:52:41;;;;;;;;;;;;;;;20.65;37.84;100956.19;5132015;27;19919;-73
2023/04/15 02:55:07;;;;;;;;;;;;;;;20.64;37.98;100946.38;5112714;27;19916;-74
2023/04/15 02:57:32;;;;;;;;;;;;;;;20.63;37.77;100961.75;5137738;27;19911;-74
2023/04/15 02:59:57;;;;;;;;;;;;;;;20.62;37.90;100960.09;5130482;27;19916;-74
2023/04/15 03:02:22;;;;;;;;;;;;;;;20.60;38.06;100956.72;5136969;27;19923;-74
2023/04/15 03:04:48;;;;;;;;;;;;;;;20.59;38.06;100956.91;5132120;27;19919;-74
2023/04/15 03:07:13;;;;;;;;;;;;;;;20.58;37.83;100961.47;5130319;27;19912;-69
2023/04/15 03:09:40;;;;;;;;;;;;;;;20.56;37.83;100952.72;5134828;27;19923;-74
2023/04/15 03:12:05;;;;;;;;;;;;;;;20.55;37.97;100955.56;5130116;27;19983;-74
2023/04/15 03:14:30;;;;;;;;;;;;;;;20.53;37.97;100960.31;5131235;27;19915;-74
2023/04/15 03:16:56;;;;;;;;;;;;;;;20.53;37.72;100963.88;5130105;27;20375;-74
2023/04/15 03:19:21;;;;;;;;;;;;;;;20.51;37.82;100963.19;5120419;27;19988;-74
2023/04/15 03:21:46;;;;;;;;;;;;;;;20.51;37.90;100967.75;5131312;27;19915;-74
2023/04/15 03:24:11;;;;;;;;;;;;;;;20.49;37.92;100973.34;5135449;27;19955;-73
2023/04/15 03:26:36;;;;;;;;;;;;;;;20.48;37.80;100971.66;5112078;28;19924;-75
2023/04/15 03:29:02;;;;;;;;;;;;;;;20.46;38.05;100971.78;5136726;27;19916;-74
2023/04/15 03:31:27;;;;;;;;;;;;;;;20.45;38.11;100980.91;5134532;27;19927;-73
2023/04/15 03:33:52;;;;;;;;;;;;;;;20.36;38.05;100960.38;5130408;27;19916;-74
2023/04/15 03:36:17;;;;;;;;;;;;;;;20.42;38.07;100977.72;5134969;27;19912;-74
2023/04/15 03:38:42;;;;;;;;;;;;;;;20.41;37.85;100976.88;5124394;27;19916;-71
2023/04/15 03:41:08;;;;;;;;;;;;;;;20.40;37.92;100977.91;5129675;27;19926;-74
2023/04/15 03:43:33;;;;;;;;;;;;;;;20.40;37.89;100985.19;5118207;27;19911;-74
2023/04/15 03:45:58;;;;;;;;;;;;;;;20.38;37.89;100981.78;5132182;27;19931;-74
2023/04/15 03:48:24;;;;;;;;;;;;;;;20.36;38.08;100984.69;5132857;27;19915;-74
2023/04/15 03:50:49;;;;;;;;;;;;;;;20.34;38.24;100988.56;5135619;27;19922;-74
2023/04/15 03:53:14;;;;;;;;;;;;;;;20.34;37.87;100989.41;5131514;27;19919;-73
2023/04/15 03:55:40;;;;;;;;;;;;;;;20.33;37.92;100995.81;5132946;27;20491;-74
2023/04/15 03:58:05;;;;;;;;;;;;;;;20.32;37.91;100996.84;5119190;27;19911;-74
2023/04/15 04:00:30;;;;;;;;;;;;;;;20.31;38.06;101002.44;5131881;27;19972;-74
2023/04/15 04:02:56;;;;;;;;;;;;;;;20.30;38.01;101011.53;5134198;27;20269;-70
2023/04/15 04:05:21;;;;;;;;;;;;;;;20.29;37.99;101002.59;5130377;27;19912;-75
2023/04/15 04:07:46;;;;;;;;;;;;;;;20.27;38.03;101006.50;5126552;27;19911;-75
2023/04/15 04:10:11;;;;;;;;;;;;;;;20.27;38.10;101012.75;5131854;27;19911;-74
2023/04/15 04:12:37;;;;;;;;;;;;;;;20.25;37.94;101012.06;5130690;27;19979;-74
2023/04/15 04:15:05;;;;;;;;;;;;;;;20.23;37.99;101014.09;5128128;27;19916;-74
2023/04/15 04:17:31;;;;;;;;;;;;;;;20.23;38.03;101011.41;5116946;27;19915;-75
2023/04/15 04:19:56;;;;;;;;;;;;;;;20.21;38.13;101008.88;5132405;27;19943;-74
2023/04/15 04:22:22;;;;;;;;;;;;;;;20.20;38.05;101026.09;5120878;28;19916;-75
2023/04/15 04:24:47;;;;;;;;;;;;;;;20.19;37.97;101026.28;5136055;27;19911;-75
2023/04/15 04:27:13;;;;;;;;;;;;;;;20.17;38.14;101031.81;5112292;28;20388;-75
2023/04/15 04:29:38;;;;;;;;;;;;;;;20.16;38.23;101027.44;5134865;27;19911;-73
2023/04/15 04:32:03;;;;;;;;;;;;;;;20.15;38.41;101031.16;5130614;27;19920;-71
2023/04/15 04:34:29;;;;;;;;;;;;;;;20.15;38.41;101041.13;5113764;28;19938;-75
2023/04/15 04:36:54;;;;;;;;;;;;;;;20.13;38.50;101041.28;5130658;28;20006;-75
2023/04/15 04:39:20;;;;;;;;;;;;;;;20.13;38.61;101046.69;5129151;28;19919;-75
2023/04/15 04:41:45;;;;;;;;;;;;;;;20.13;39.01;101045.84;5129152;28;19916;-73
2023/04/15 04:44:10;;;;;;;;;;;;;;;20.12;38.82;101049.56;5130520;27;19926;-75
2023/04/15 04:46:35;;;;;;;;;;;;;;;20.12;39.15;101052.25;5129312;28;20419;-75
2023/04/15 04:49:00;;;;;;;;;;;;;;;20.11;39.08;101051.44;5132906;28;19958;-74
2023/04/15 04:51:26;;;;;;;;;;;;;;;20.11;39.35;101058.69;5134083;27;19923;-73
2023/04/15 04:53:51;;;;;;;;;;;;;;;20.10;39.08;101063.25;5134151;28;19915;-74
2023/04/15 04:56:17;;;;;;;;;;;;;;;20.09;39.41;101064.28;5136643;28;19935;-70
2023/04/15 04:58:42;;;;;;;;;;;;;;;20.10;39.25;101067.81;5128705;28;19949;-72
2023/04/15 05:01:07;;;;;;;;;;;;;;;20.09;39.45;101066.97;5130889;28;19923;-71
2023/04/15 05:03:33;;;;;;;;;;;;;;;20.09;39.33;101068.78;5130396;28;19975;-73
2023/04/15 05:05:58;;;;;;;;;;;;;;;20.08;39.56;101075.22;5127011;28;19919;-72
2023/04/15 05:08:23;;;;;;;;;;;;;;;20.08;39.42;101075.22;5111056;28;19915;-69
2023/04/15 05:10:48;;;;;;;;;;;;;;;20.07;39.61;101071.69;5129922;28;19916;-70
2023/04/15 05:13:13;;;;;;;;;;;;;;;20.06;39.71;101078.09;5127405;28;19927;-71
2023/04/15 05:15:40;;;;;;;;;;;;;;;20.07;39.50;101078.94;5131487;28;19926;-75
2023/04/15 05:18:05;;;;;;;;;;;;;;;20.05;39.47;101098.00;5111695;28;19947;-75
2023/04/15 05:20:30;;;;;;;;;;;;;;;20.04;39.66;101085.50;5132978;28;19941;-74
2023/04/15 05:22:55;;;;;;;;;;;;;;;20.04;39.60;101093.59;5133468;28;19915;-74
2023/04/15 05:25:21;;;;;;;;;;;;;;;20.04;39.60;101098.16;5132241;28;19927;-74
2023/04/15 05:27:46;;;;;;;;;;;;;;;20.03;39.71;101094.63;5129763;27;19915;-74
2023/04/15 05:30:11;;;;;;;;;;;;;;;20.04;39.70;101092.78;5129063;28;19933;-74
2023/04/15 05:32:37;;;;;;;;;;;;;;;20.03;39.95;101097.34;5128186;28;19958;-72
2023/04/15 05:35:02;;;;;;;;;;;;;;;20.03;39.91;101094.63;5129175;28;19916;-70
2023/04/15 05:37:27;;;;;;;;;;;;;;;20.01;39.83;101091.28;5129775;28;19940;-71
2023/04/15 05:39:52;;;;;;;;;;;;;;;20.03;40.15;101096.50;5129940;28;19940;-69
2023/04/15 05:42:18;;;;;;;;;;;;;;;20.01;39.87;101104.78;5126807;28;19918;-72
2023/04/15 05:44:43;;;;;;;;;;;;;;;20.01;39.86;101103.91;5134876;27;19923;-73
2023/04/15 05:47:09;;;;;;;;;;;;;;;20.00;39.92;101102.22;5132304;28;19949;-71
2023/04/15 05:49:34;;;;;;;;;;;;;;;20.00;39.92;101108.47;5137028;27;19932;-70
2023/04/15 05:51:59;;;;;;;;;;;;;;;20.00;40.17;101107.63;5136157;27;19918;-71
2023/04/15 05:54:26;;;;;;;;;;;;;;;20.00;40.06;101124.66;5134160;27;19931;-71
2023/04/15 05:56:51;;;;;;;;;;;;;;;19.99;40.16;101120.28;5135209;27;19927;-71
2023/04/15 05:59:16;;;;;;;;;;;;;;;20.00;40.00;101121.13;5130752;27;20088;-71
2023/04/15 06:01:42;;;;;;;;;;;;;;;20.00;39.78;101131.91;5133328;27;19927;-71
2023/04/15 06:04:08;;;;;;;;;;;;;;;19.99;39.91;101128.38;5139747;27;19921;-70
2023/04/15 06:06:33;;;;;;;;;;;;;;;19.98;39.92;101135.63;5132139;27;19919;-70
2023/04/15 06:08:59;;;;;;;;;;;;;;;20.00;39.69;101131.91;5131074;27;19957;-71
2023/04/15 06:11:25;;;;;;;;;;;;;;;19.98;39.86;101138.31;5133156;27;19991;-71
2023/04/15 06:13:50;;;;;;;;;;;;;;;19.98;39.72;101142.88;5132410;27;19992;-69
2023/04/15 06:16:16;;;;;;;;;;;;;;;19.98;39.62;101153.69;5119370;27;19912;-69
2023/04/15 06:18:41;;;;;;;;;;;;;;;19.97;39.89;101157.41;5138318;27;19937;-71
2023/04/15 06:21:06;;;;;;;;;;;;;;;19.95;39.93;101157.56;5134538;27;19915;-71
2023/04/15 06:23:35;;;;;;;;;;;;;;;19.96;39.92;101170.06;5120171;27;19951;-74
2023/04/15 06:26:00;;;;;;;;;;;;;;;19.96;39.98;101182.69;5114943;27;19931;-75
2023/04/15 06:28:25;;;;;;;;;;;;;;;19.94;39.61;101166.66;5113922;27;19915;-75
2023/04/15 06:30:51;;;;;;;;;;;;;;;19.94;39.88;101173.91;5129961;27;20376;-71
2023/04/15 06:33:17;;;;;;;;;;;;;;;19.94;39.86;101187.41;5130808;27;20021;-71
2023/04/15 06:35:42;;;;;;;;;;;;;;;19.93;39.72;101183.03;5132168;27;20021;-72
2023/04/15 06:38:07;;;;;;;;;;;;;;;19.92;39.62;101190.28;5132741;27;19911;-72
2023/04/15 06:40:32;;;;;;;;;;;;;;;19.91;39.70;101191.28;5134446;27;19957;-73
2023/04/15 06:42:57;;;;;;;;;;;;;;;19.91;39.71;101202.06;5113663;27;19954;-72
2023/04/15 06:45:22;;;;;;;;;;;;;;;19.91;39.63;101209.34;5137871;27;20002;-72
2023/04/15 06:47:48;;;;;;;;;;;;;;;19.90;39.69;101207.66;5137031;27;19915;-72
2023/04/15 06:50:13;;;;;;;;;;;;;;;19.90;39.65;101213.06;5111665;28;19912;-72
2023/04/15 06:52:38;;;;;;;;;;;;;;;19.89;39.34;101223.00;5116072;27;19916;-72
2023/04/15 06:55:04;;;;;;;;;;;;;;;19.89;39.63;101219.47;5131179;27;19924;-72
2023/04/15 06:57:29;;;;;;;;;;;;;;;19.88;39.35;101220.44;5130656;27;19927;-72
2023/04/15 06:59:55;;;;;;;;;;;;;;;19.88;39.53;101221.31;5115192;28;19919;-73
2023/04/15 07:02:20;;;;;;;;;;;;;;;19.87;39.52;101225.00;5131614;27;19911;-72
2023/04/15 07:04:45;;;;;;;;;;;;;;;19.88;39.44;101229.41;5102571;27;19922;-74
2023/04/15 07:07:11;;;;;;;;;;;;;;;19.87;39.38;101233.09;5111190;27;19991;-72
2023/04/15 07:09:36;;;;;;;;;;;;;;;19.88;39.42;101233.94;5132864;27;19912;-72
2023/04/15 07:12:01;;;;;;;;;;;;;;;19.89;39.35;101230.25;5131184;27;19936;-72
2023/04/15 07:14:26;;;;;;;;;;;;;;;19.87;39.42;101233.09;5135842;27;19919;-72
2023/04/15 07:16:52;;;;;;;;;;;;;;;19.87;39.49;101241.19;5130245;27;19928;-73
2023/04/15 07:19:17;;;;;;;;;;;;;;;19.87;39.25;101233.09;5107515;27;19915;-74
2023/04/15 07:21:42;;;;;;;;;;;;;;;19.88;39.41;101234.81;5114821;27;19912;-68
2023/04/15 07:24:09;;;;;;;;;;;;;;;19.88;39.38;101251.00;5129824;27;20442;-68
2023/04/15 07:26:34;;;;;;;;;;;;;;;19.89;39.51;101251.84;5117307;28;20170;-73
2023/04/15 07:28:59;;;;;;;;;;;;;;;19.90;39.51;101254.38;5113299;27;19982;-71
2023/04/15 07:31:25;;;;;;;;;;;;;;;19.90;39.46;101262.47;5130302;27;19918;-69
2023/04/15 07:33:50;;;;;;;;;;;;;;;19.90;39.40;101254.38;5114398;27;19959;-69
2023/04/15 07:36:15;;;;;;;;;;;;;;;19.91;39.46;101258.75;5132985;27;19937;-70
2023/04/15 07:38:41;;;;;;;;;;;;;;;19.91;39.53;101256.06;5130828;27;19915;-69
2023/04/15 07:41:06;;;;;;;;;;;;;;;19.91;39.50;101260.59;5135284;27;20253;-70
2023/04/15 07:43:31;;;;;;;;;;;;;;;19.91;39.42;101264.16;5118515;27;19939;-69
2023/04/15 07:45:56;;;;;;;;;;;;;;;19.92;39.46;101260.47;5133468;27;19912;-69
2023/04/15 07:48:22;;;;;;;;;;;;;;;19.92;39.25;101256.88;5135751;27;19933;-69
2023/04/15 07:50:47;;;;;;;;;;;;;;;19.93;39.02;101264.00;5136454;27;19923;-69
2023/04/15 07:53:12;;;;;;;;;;;;;;;19.93;39.17;101266.69;5132952;27;19912;-69
2023/04/15 07:55:37;;;;;;;;;;;;;;;19.92;39.18;101252.38;5129205;27;19950;-69
2023/04/15 07:58:02;;;;;;;;;;;;;;;19.93;39.10;101267.53;5131294;27;19989;-69
2023/04/15 08:00:28;;;;;;;;;;;;;;;19.94;39.25;101271.91;5116519;28;19912;-69
2023/04/15 08:02:53;;;;;;;;;;;;;;;19.94;39.25;101277.31;5134301;27;20002;-69
2023/04/15 08:05:18;;;;;;;;;;;;;;;19.94;39.03;101274.63;5133348;27;20335;-69
2023/04/15 08:07:44;;;;;;;;;;;;;;;19.95;39.11;101276.28;5114540;27;20385;-69
2023/04/15 08:10:10;;;;;;;;;;;;;;;19.96;39.11;101278.00;5133295;27;20388;-69
2023/04/15 08:12:35;;;;;;;;;;;;;;;19.97;39.36;101282.38;5122750;27;19955;-69
2023/04/15 08:15:01;;;;;;;;;;;;;;;19.97;39.19;101284.25;5138237;27;19920;-70
2023/04/15 08:17:27;;;;;;;;;;;;;;;19.98;38.97;101285.94;5119244;28;20311;-69
2023/04/15 08:19:52;;;;;;;;;;;;;;;19.98;39.03;101283.22;5132651;27;19916;-70
2023/04/15 08:22:17;;;;;;;;;;;;;;;19.98;39.27;101284.06;5130608;27;20358;-69
2023/04/15 08:24:43;;;;;;;;;;;;;;;19.99;38.92;101301.09;5130274;27;19918;-69
2023/04/15 08:27:09;;;;;;;;;;;;;;;19.98;39.27;101286.78;5131440;27;19938;-70
2023/04/15 08:29:34;;;;;;;;;;;;;;;20.00;39.23;101294.69;5100422;28;19923;-69
2023/04/15 08:32:00;;;;;;;;;;;;;;;19.98;38.99;101297.56;5128449;28;19912;-69
2023/04/15 08:34:25;;;;;;;;;;;;;;;19.99;39.08;101293.00;5134924;27;19995;-69
2023/04/15 08:36:50;;;;;;;;;;;;;;;20.00;38.97;101302.78;5133681;28;19923;-69
2023/04/15 08:39:16;;;;;;;;;;;;;;;20.01;38.91;101300.94;5131054;28;19911;-69
2023/04/15 08:42:01;;;;;;;;;;;;;;;20.03;39.25;101304.31;5121432;28;19936;-69
2023/04/15 08:44:27;;;;;;;;;;;;;;;20.03;38.90;101304.31;5115506;28;19923;-68
2023/04/15 08:46:52;;;;;;;;;;;;;;;20.04;39.08;101314.94;5122463;28;19985;-69
2023/04/15 08:49:18;;;;;;;;;;;;;;;20.04;39.15;101314.94;5133571;27;19998;-69
2023/04/15 08:51:44;;;;;;;;;;;;;;;20.05;39.20;101313.09;5111022;28;19915;-69
2023/04/15 08:54:09;;;;;;;;;;;;;;;20.06;39.01;101317.50;5125554;28;19916;-69
2023/04/15 08:56:35;;;;;;;;;;;;;;;20.06;39.17;101318.34;5129974;28;19911;-69
2023/04/15 08:59:01;;;;;;;;;;;;;;;20.07;39.01;101316.47;5129349;28;19916;-69
2023/04/15 09:01:26;;;;;;;;;;;;;;;20.07;39.10;101313.78;5133890;28;19912;-69
2023/04/15 09:03:53;;;;;;;;;;;;;;;20.08;39.13;101318.16;5114904;28;19950;-69
2023/04/15 09:06:19;;;;;;;;;;;;;;;20.10;38.88;101319.69;5134068;28;19915;-69
2023/04/15 09:08:44;;;;;;;;;;;;;;;20.09;38.86;101328.81;5134496;28;19919;-69
2023/04/15 09:11:10;;;;;;;;;;;;;;;20.11;38.87;101323.22;5132197;28;20347;-69
2023/04/15 09:13:35;;;;;;;;;;;;;;;20.11;39.06;101331.31;5132091;28;20352;-69
2023/04/15 09:16:02;;;;;;;;;;;;;;;20.12;38.96;101325.75;5134566;28;20276;-69
2023/04/15 09:18:31;;;;;;;;;;;;;;;20.14;38.92;101331.00;5129453;28;19919;-69
2023/04/15 09:21:04;;;;;;;;;;;;;;;20.15;38.98;101341.63;5130481;28;19923;-69
2023/04/15 09:23:30;;;;;;;;;;;;;;;20.16;39.07;101339.75;5113169;27;19919;-69
2023/04/15 09:25:55;;;;;;;;;;;;;;;20.18;38.86;101340.47;5133766;27;19912;-69
2023/04/15 09:28:24;;;;;;;;;;;;;;;20.17;39.00;101342.28;5128562;27;19915;-69
2023/04/15 09:30:56;;;;;;;;;;;;;;;20.19;39.04;101351.09;5136779;27;19916;-69
2023/04/15 09:33:22;;;;;;;;;;;;;;;20.20;38.63;101355.47;5130924;27;19912;-68
2023/04/15 09:35:55;;;;;;;;;;;;;;;20.21;38.55;101361.72;5136334;27;20379;-69
2023/04/15 09:38:20;;;;;;;;;;;;;;;20.22;38.93;101350.75;5132333;27;19935;-69
2023/04/15 09:40:45;;;;;;;;;;;;;;;20.25;38.65;101356.81;5134624;27;20431;-69
2023/04/15 09:43:12;;;;;;;;;;;;;;;20.26;38.59;101362.03;5139214;27;19923;-69
2023/04/15 09:45:38;;;;;;;;;;;;;;;20.29;38.84;101358.19;5135454;27;19921;-69
2023/04/15 09:48:17;;;;;;;;;;;;;;;20.31;38.54;101375.91;5134157;27;19911;-68
2023/04/15 09:50:42;;;;;;;;;;;;;;;20.33;38.51;101364.94;5138693;27;19926;-68
2023/04/15 09:53:14;;;;;;;;;;;;;;;20.34;38.70;101372.03;5133801;27;20003;-68
2023/04/15 09:55:42;;;;;;;;;;;;;;;20.37;38.78;101377.09;5140707;27;19923;-68
2023/04/15 09:58:08;;;;;;;;;;;;;;;20.38;38.53;101382.31;5136077;27;20861;-68
2023/04/15 10:00:33;;;;;;;;;;;;;;;20.40;38.76;101387.56;5130356;27;19912;-68
2023/04/15 10:02:58;;;;;;;;;;;;;;;20.42;38.44;101383.66;5136593;27;20001;-68
2023/04/15 10:05:24;;;;;;;;;;;;;;;20.43;38.50;101387.22;5117472;27;19922;-68
2023/04/15 10:07:49;;;;;;;;;;;;;;;20.45;38.48;101391.44;5126326;27;19918;-67
2023/04/15 10:10:15;;;;;;;;;;;;;;;20.49;38.41;101383.91;5139522;27;19967;-68
2023/04/15 10:12:40;;;;;;;;;;;;;;;20.52;38.49;101393.50;5126017;27;19924;-68
2023/04/15 10:15:06;;;;;;;;;;;;;;;20.53;38.27;101387.94;5116365;27;19983;-68
2023/04/15 10:17:35;;;;;;;;;;;;;;;20.54;38.20;101391.50;5113803;27;19919;-67
2023/04/15 10:20:02;;;;;;;;;;;;;;;20.55;38.34;101382.38;5135419;27;19922;-67
2023/04/15 10:22:27;;;;;;;;;;;;;;;20.57;38.51;101391.16;5132746;27;19912;-67
2023/04/15 10:24:53;;;;;;;;;;;;;;;20.59;38.46;101386.44;5132450;27;19991;-67
2023/04/15 10:27:18;;;;;;;;;;;;;;;20.60;38.38;101393.50;5132196;27;20555;-67
2023/04/15 10:29:43;;;;;;;;;;;;;;;20.63;38.49;101390.47;5120866;27;19912;-67
2023/04/15 10:32:09;;;;;;;;;;;;;;;20.63;38.78;101394.03;5115921;27;19919;-66
2023/04/15 10:34:34;;;;;;;;;;;;;;;20.66;39.02;101388.28;5131921;27;19985;-66
2023/04/15 10:37:01;;;;;;;;;;;;;;;20.69;38.84;101397.94;5122557;27;19953;-65
2023/04/15 10:39:36;;;;;;;;;;;;;;;20.72;39.19;101397.56;5113653;28;19951;-65
2023/04/15 10:42:11;;;;;;;;;;;;;;;20.72;39.17;101403.81;5134170;27;19915;-65
2023/04/15 10:44:37;;;;;;;;;;;;;;;20.75;39.51;101402.66;5133206;27;19907;-65
2023/04/15 10:47:05;;;;;;;;;;;;;;;20.78;39.68;101405.03;5131011;27;19916;-66
2023/04/15 10:49:30;;;;;;;;;;;;;;;20.79;39.38;101409.41;5133719;27;19911;-67
2023/04/15 10:51:57;;;;;;;;;;;;;;;20.82;39.69;101425.28;5114199;28;19923;-70
2023/04/15 10:54:25;;;;;;;;;;;;;;;20.84;39.70;101406.19;5117428;27;19922;-69
2023/04/15 10:56:51;;;;;;;;;;;;;;;20.86;39.36;101415.84;5131864;27;19922;-65
2023/04/15 10:59:16;;;;;;;;;;;;;;;20.88;39.63;101413.78;5136096;27;19958;-67
2023/04/15 11:01:52;;;;;;;;;;;;;;;20.90;39.64;101411.78;5132633;27;19912;-67
2023/04/15 11:04:36;;;;;;;;;;;;;;;20.91;39.84;101410.75;5134238;27;19923;-67
2023/04/15 11:07:05;;;;;;;;;;;;;;;20.94;39.53;101420.38;5133038;27;19923;-67
2023/04/15 11:09:32;;;;;;;;;;;;;;;20.96;39.53;101421.91;5133723;27;20496;-68
2023/04/15 11:12:04;;;;;;;;;;;;;;;20.99;39.82;101422.59;5111927;27;19927;-67
2023/04/15 11:14:29;;;;;;;;;;;;;;;21.01;39.80;101431.38;5131340;27;19938;-69
2023/04/15 11:16:55;;;;;;;;;;;;;;;21.00;39.80;101429.69;5113958;27;19919;-68
2023/04/15 11:19:20;;;;;;;;;;;;;;;21.02;39.46;101438.44;5131622;27;19915;-69
2023/04/15 11:21:45;;;;;;;;;;;;;;;21.02;39.44;101431.19;5132505;27;19912;-68
2023/04/15 11:24:10;;;;;;;;;;;;;;;21.04;39.43;101436.44;5116198;27;19915;-69
2023/04/15 11:26:35;;;;;;;;;;;;;;;21.05;39.55;101430.00;5129354;27;20011;-69
2023/04/15 11:29:01;;;;;;;;;;;;;;;21.07;39.91;101438.78;5131505;27;20367;-69
2023/04/15 11:31:27;;;;;;;;;;;;;;;21.09;39.59;101436.75;5112286;27;19926;-68
2023/04/15 11:33:57;;;;;;;;;;;;;;;21.11;39.51;101448.25;5134278;27;19923;-70
2023/04/15 11:36:25;;;;;;;;;;;;;;;21.12;39.75;101439.97;5125821;27;19933;-69
2023/04/15 11:38:50;;;;;;;;;;;;;;;21.16;39.66;101445.91;5133206;27;19964;-69
2023/04/15 11:41:19;;;;;;;;;;;;;;;21.18;39.15;101452.81;5131017;27;19915;-72
2023/04/15 11:43:44;;;;;;;;;;;;;;;21.21;39.24;101457.03;5115116;27;19916;-71
2023/04/15 11:46:09;;;;;;;;;;;;;;;21.23;39.48;101461.25;5130213;27;20363;-70
2023/04/15 11:48:35;;;;;;;;;;;;;;;21.23;39.34;101455.84;5132147;27;19960;-70
2023/04/15 11:51:01;;;;;;;;;;;;;;;21.23;39.31;101455.00;5133266;27;19919;-70
2023/04/15 11:53:40;;;;;;;;;;;;;;;21.24;39.62;101451.28;5129310;27;19916;-71
2023/04/15 11:56:07;;;;;;;;;;;;;;;21.29;39.37;101442.66;5134636;27;19994;-70
2023/04/15 11:58:33;;;;;;;;;;;;;;;21.30;39.56;101445.19;5114593;28;19983;-71
2023/04/15 12:00:59;;;;;;;;;;;;;;;21.29;39.16;101454.31;5133190;27;19916;-70
2023/04/15 12:03:26;;;;;;;;;;;;;;;21.30;39.62;101447.91;5133703;27;19937;-70
2023/04/15 12:06:11;;;;;;;;;;;;;;;21.31;39.42;101449.56;5104742;27;19919;-70
2023/04/15 12:08:54;;;;;;;;;;;;;;;21.30;39.44;101455.16;5129428;27;19915;-71
2023/04/15 12:11:19;;;;;;;;;;;;;;;21.29;39.61;101464.31;5124279;27;19971;-71
2023/04/15 12:13:46;;;;;;;;;;;;;;;21.28;39.20;101471.56;5129774;27;19930;-70
2023/04/15 12:16:19;;;;;;;;;;;;;;;21.29;39.26;101472.41;5127662;28;20215;-71
2023/04/15 12:18:46;;;;;;;;;;;;;;;21.27;39.45;101477.13;5128612;27;19915;-71
2023/04/15 12:21:11;;;;;;;;;;;;;;;21.26;39.52;101478.16;5134767;27;19916;-72
2023/04/15 12:23:37;;;;;;;;;;;;;;;21.25;39.35;101484.59;5129445;27;19983;-71
2023/04/15 12:26:06;;;;;;;;;;;;;;;21.23;39.25;101491.00;5135260;27;19912;-71
2023/04/15 12:28:33;;;;;;;;;;;;;;;21.25;39.48;101490.00;5130297;27;19920;-71